createdAt,value
2022-09-14T00:01:32.463Z,94.08
2022-09-14T00:03:34.357Z,94.32
2022-09-14T00:05:35.893Z,94.33
2022-09-14T00:07:37.345Z,94.33
2022-09-14T00:09:38.656Z,94.38
2022-09-14T00:11:39.982Z,94.31
2022-09-14T00:13:41.647Z,94.39
2022-09-14T00:15:42.860Z,94.44
2022-09-14T00:17:44.249Z,94.5
2022-09-14T00:19:45.701Z,94.37
2022-09-14T00:21:47.459Z,94.46
2022-09-14T00:25:50.065Z,94.45
2022-09-14T00:27:51.210Z,94.61
2022-09-14T00:29:52.923Z,94.61
2022-09-14T00:33:55.139Z,94.48
2022-09-14T00:35:56.469Z,94.5
2022-09-14T00:37:57.727Z,94.6
2022-09-14T00:42:00.122Z,94.93
2022-09-14T00:44:01.464Z,94.88
2022-09-14T00:46:02.894Z,94.79
2022-09-14T00:48:04.096Z,94.72
2022-09-14T00:52:06.279Z,94.7
2022-09-14T00:54:07.940Z,94.77
2022-09-14T00:56:09.621Z,94.72
2022-09-14T00:58:11.479Z,94.79
2022-09-14T01:00:12.695Z,94.74
2022-09-14T01:02:13.602Z,94.7
2022-09-14T01:04:15.224Z,94.83
2022-09-14T01:06:16.211Z,94.96
2022-09-14T01:08:17.790Z,95.04
2022-09-14T01:10:19.603Z,95.18
2022-09-14T01:12:20.953Z,95.3
2022-09-14T01:14:22.113Z,95.44
2022-09-14T01:16:24.034Z,95.5
2022-09-14T01:18:25.385Z,95.6
2022-09-14T01:20:26.688Z,95.65
2022-09-14T01:22:28.138Z,95.72
2022-09-14T01:24:29.896Z,95.79
2022-09-14T01:26:31.735Z,95.84
2022-09-14T01:28:32.774Z,95.93
2022-09-14T01:30:34.601Z,96.24
2022-09-14T01:34:37.226Z,96.54
2022-09-14T01:36:38.963Z,96.67
2022-09-14T01:38:40.406Z,96.63
2022-09-14T01:40:41.953Z,96.73
2022-09-14T01:42:43.353Z,96.8
2022-09-14T01:44:44.830Z,96.81
2022-09-14T01:46:45.865Z,96.81
2022-09-14T01:48:47.014Z,96.86
2022-09-14T01:50:48.138Z,96.85
2022-09-14T01:52:49.541Z,96.87
2022-09-14T01:54:50.509Z,96.92
2022-09-14T01:56:52.201Z,97.01
2022-09-14T01:58:53.856Z,97.04
2022-09-14T02:02:56.748Z,97.13
2022-09-14T02:04:57.683Z,97.22
2022-09-14T02:06:59.509Z,97.23
2022-09-14T02:09:00.805Z,97.25
2022-09-14T02:11:01.882Z,97.09
2022-09-14T02:13:03.463Z,97.02
2022-09-14T02:17:05.614Z,96.88
2022-09-14T02:19:06.903Z,96.92
2022-09-14T02:21:08.407Z,96.97
2022-09-14T02:23:09.333Z,97
2022-09-14T02:25:10.438Z,97.02
2022-09-14T02:27:11.954Z,97.02
2022-09-14T02:29:13.522Z,97.11
2022-09-14T02:31:15.090Z,97.17
2022-09-14T02:33:16.765Z,97.23
2022-09-14T02:35:18.486Z,97.29
2022-09-14T02:37:19.570Z,97.32
2022-09-14T02:39:21.309Z,97.39
2022-09-14T02:41:22.240Z,97.42
2022-09-14T02:43:24.109Z,97.47
2022-09-14T02:45:25.217Z,97.47
2022-09-14T02:47:26.211Z,97.53
2022-09-14T02:49:27.183Z,97.56
2022-09-14T02:51:28.982Z,97.63
2022-09-14T02:53:30.244Z,97.66
2022-09-14T02:57:32.735Z,97.65
2022-09-14T02:59:34.376Z,97.66
2022-09-14T03:01:35.439Z,97.69
2022-09-14T03:03:37.268Z,97.7
2022-09-14T03:05:39.113Z,97.73
2022-09-14T03:07:39.993Z,97.84
2022-09-14T03:09:41.194Z,97.92
2022-09-14T03:11:42.257Z,98
2022-09-14T03:15:44.806Z,98.1
2022-09-14T03:17:46.516Z,98.14
2022-09-14T03:19:48.077Z,98.21
2022-09-14T03:21:49.818Z,98.21
2022-09-14T03:23:51.211Z,97.66
2022-09-14T03:25:53.032Z,96.71
2022-09-14T03:27:54.514Z,96.89
2022-09-14T03:29:56.272Z,97.2
2022-09-14T03:31:57.422Z,97.35
2022-09-14T03:33:58.648Z,97.52
2022-09-14T03:35:59.801Z,97.61
2022-09-14T03:38:01.130Z,97.72
2022-09-14T03:40:02.894Z,97.8
2022-09-14T03:42:04.366Z,97.86
2022-09-14T03:44:05.752Z,97.93
2022-09-14T03:46:07.363Z,97.96
2022-09-14T03:48:08.884Z,97.96
2022-09-14T03:50:10.001Z,97.97
2022-09-14T03:52:11.485Z,98.01
2022-09-14T03:54:13.054Z,98
2022-09-14T03:58:15.888Z,97.96
2022-09-14T04:00:16.959Z,98
2022-09-14T04:02:18.714Z,98.02
2022-09-14T04:04:20.500Z,98.04
2022-09-14T04:06:21.369Z,98.03
2022-09-14T04:08:23.206Z,98.03
2022-09-14T04:10:24.856Z,98.1
2022-09-14T04:12:26.672Z,98.17
2022-09-14T04:14:28.337Z,97.88
2022-09-14T04:16:29.328Z,97.92
2022-09-14T04:18:30.544Z,97.88
2022-09-14T04:20:31.672Z,96.74
2022-09-14T04:22:32.628Z,96.32
2022-09-14T04:24:33.735Z,95.68
2022-09-14T04:26:35.219Z,95.41
2022-09-14T04:28:36.833Z,95.37
2022-09-14T04:30:38.556Z,96.04
2022-09-14T04:32:40.064Z,96.19
2022-09-14T04:34:41.110Z,96.21
2022-09-14T04:36:42.137Z,96.46
2022-09-14T04:40:53.397Z,96.9
2022-09-14T04:42:47.077Z,97.02
2022-09-14T04:44:48.752Z,97.17
2022-09-14T04:46:50.026Z,97.36
2022-09-14T04:48:51.017Z,97.46
2022-09-14T04:50:52.415Z,97.5
2022-09-14T04:52:53.372Z,97.6
2022-09-14T04:54:54.593Z,97.67
2022-09-14T04:56:55.921Z,97.72
2022-09-14T04:58:57.724Z,97.75
2022-09-14T05:00:58.824Z,97.79
2022-09-14T05:03:00.569Z,97.8
2022-09-14T05:05:01.567Z,97.82
2022-09-14T05:07:02.709Z,97.95
2022-09-14T05:09:03.715Z,98.06
2022-09-14T05:13:06.225Z,97.8
2022-09-14T05:15:07.647Z,97.6
2022-09-14T05:17:09.121Z,97.55
2022-09-14T05:19:10.983Z,97.58
2022-09-14T05:23:12.985Z,97.65
2022-09-14T05:25:13.870Z,97.63
2022-09-14T05:27:15.244Z,97.64
2022-09-14T05:29:16.176Z,97.73
2022-09-14T05:31:17.558Z,97.8
2022-09-14T05:33:18.501Z,97.79
2022-09-14T05:35:20.185Z,97.84
2022-09-14T05:37:21.147Z,97.88
2022-09-14T05:39:23.261Z,97.88
2022-09-14T05:41:23.935Z,97.87
2022-09-14T05:43:25.560Z,97.92
2022-09-14T05:45:27.337Z,97.95
2022-09-14T05:47:28.272Z,98.04
2022-09-14T05:49:30.005Z,98.14
2022-09-14T05:51:31.332Z,98.17
2022-09-14T05:53:32.912Z,98.15
2022-09-14T05:55:34.553Z,98.19
2022-09-14T05:57:35.917Z,98.17
2022-09-14T05:59:37.650Z,98.14
2022-09-14T06:01:38.803Z,98.17
2022-09-14T06:04:24.268Z,98.18
2022-09-14T06:06:25.149Z,98.17
2022-09-14T06:08:26.125Z,98.15
2022-09-14T06:10:27.120Z,98.14
2022-09-14T06:12:27.938Z,98.16
2022-09-14T06:16:31.262Z,98.19
2022-09-14T06:18:32.872Z,98.19
2022-09-14T06:20:33.813Z,98.12
2022-09-14T06:22:35.218Z,98.14
2022-09-14T06:24:36.654Z,98.1
2022-09-14T06:26:37.809Z,98.13
2022-09-14T06:28:38.765Z,98.09
2022-09-14T06:30:39.875Z,98.11
2022-09-14T06:32:40.905Z,98.03
2022-09-14T06:34:42.374Z,98.03
2022-09-14T06:36:43.321Z,97.99
2022-09-14T06:38:44.754Z,97.9
2022-09-14T06:40:46.129Z,97.83
2022-09-14T06:42:47.463Z,97.77
2022-09-14T06:44:48.743Z,97.77
2022-09-14T06:48:52.076Z,97.66
2022-09-14T06:50:53.170Z,97.62
2022-09-14T06:52:54.259Z,97.44
2022-09-14T06:54:55.324Z,97.43
2022-09-14T06:58:57.436Z,97.41
2022-09-14T07:00:58.577Z,97.39
2022-09-14T07:03:00.372Z,97.39
2022-09-14T07:05:01.511Z,97.35
2022-09-14T07:07:03.183Z,97.34
2022-09-14T07:09:04.717Z,97.28
2022-09-14T07:11:05.904Z,97.25
2022-09-14T07:13:07.407Z,97.28
2022-09-14T07:15:08.267Z,97.34
2022-09-14T07:17:09.343Z,97.28
2022-09-14T07:19:10.940Z,97.28
2022-09-14T07:21:12.114Z,97.35
2022-09-14T07:23:12.994Z,97.36
2022-09-14T07:25:14.328Z,97.36
2022-09-14T07:27:16.050Z,97.38
2022-09-14T07:29:17.424Z,97.42
2022-09-14T07:31:18.429Z,97.4
2022-09-14T07:33:20.133Z,97.35
2022-09-14T07:35:21.044Z,97.29
2022-09-14T07:37:22.008Z,97.32
2022-09-14T07:39:23.392Z,97.32
2022-09-14T07:41:24.762Z,97.34
2022-09-14T07:43:26.297Z,97.38
2022-09-14T07:45:27.971Z,97.43
2022-09-14T07:47:28.881Z,97.26
2022-09-14T07:49:30.102Z,97.28
2022-09-14T07:51:31.363Z,97.21
2022-09-14T07:53:32.543Z,96.99
2022-09-14T07:57:54.930Z,96.7
2022-09-14T07:59:37.332Z,96.9
2022-09-14T08:01:37.863Z,96.93
2022-09-14T08:03:39.674Z,97.02
2022-09-14T08:05:41.051Z,96.87
2022-09-14T08:07:41.936Z,96.82
2022-09-14T08:09:43.363Z,96.75
2022-09-14T08:11:44.593Z,96.78
2022-09-14T08:13:46.414Z,96.67
2022-09-14T08:15:47.363Z,96.62
2022-09-14T08:17:48.402Z,96.59
2022-09-14T08:19:49.788Z,96.57
2022-09-14T08:21:51.228Z,96.68
2022-09-14T08:23:52.496Z,96.69
2022-09-14T08:25:54.106Z,96.68
2022-09-14T08:29:57.110Z,96.5
2022-09-14T08:31:58.208Z,96.47
2022-09-14T08:33:59.553Z,96.47
2022-09-14T08:36:00.955Z,96.63
2022-09-14T08:40:03.531Z,96.44
2022-09-14T08:42:05.151Z,96.39
2022-09-14T08:44:06.826Z,96.46
2022-09-14T08:46:07.961Z,96.45
2022-09-14T08:48:09.420Z,96.41
2022-09-14T08:50:10.581Z,96.49
2022-09-14T08:52:12.340Z,96
2022-09-14T08:54:13.324Z,96.01
2022-09-14T08:56:15.009Z,95.87
2022-09-14T08:58:16.051Z,96.07
2022-09-14T09:02:19.672Z,95.69
2022-09-14T09:04:20.798Z,95.36
2022-09-14T09:06:21.619Z,95.14
2022-09-14T09:08:23.284Z,95.46
2022-09-14T09:12:25.689Z,94.93
2022-09-14T09:14:26.953Z,94.88
2022-09-14T09:16:27.895Z,95.32
2022-09-14T09:18:28.913Z,95.34
2022-09-14T09:20:30.528Z,95.57
2022-09-14T09:22:31.931Z,95.3
2022-09-14T09:24:37.015Z,94.89
2022-09-14T09:26:34.939Z,94.83
2022-09-14T09:28:35.902Z,95.01
2022-09-14T09:30:36.849Z,94.96
2022-09-14T09:32:37.938Z,95.18
2022-09-14T09:34:38.932Z,95.23
2022-09-14T09:36:40.429Z,95.43
2022-09-14T09:38:41.749Z,95.47
2022-09-14T09:40:42.523Z,95.68
2022-09-14T09:42:43.825Z,95.82
2022-09-14T09:44:45.131Z,95.9
2022-09-14T09:46:46.759Z,95.91
2022-09-14T09:48:47.938Z,95.99
2022-09-14T09:50:49.723Z,96
2022-09-14T09:52:50.623Z,96.13
2022-09-14T09:54:51.903Z,96.12
2022-09-14T09:56:52.948Z,96.16
2022-09-14T09:58:53.943Z,96.16
2022-09-14T10:00:55.371Z,96.17
2022-09-14T10:02:56.468Z,96.26
2022-09-14T10:04:58.218Z,96.21
2022-09-14T10:06:59.233Z,96.06
2022-09-14T10:11:01.103Z,95.77
2022-09-14T10:13:01.963Z,95.91
2022-09-14T10:15:02.857Z,95.81
2022-09-14T10:17:04.449Z,95.53
2022-09-14T10:19:05.537Z,95.12
2022-09-14T10:21:06.981Z,94.45
2022-09-14T10:23:07.814Z,94
2022-09-14T10:25:09.082Z,94.44
2022-09-14T10:27:09.974Z,93.99
2022-09-14T10:29:11.178Z,93.86
2022-09-14T10:31:12.612Z,93.59
2022-09-14T10:33:13.593Z,93.27
2022-09-14T10:35:14.970Z,93.65
2022-09-14T10:37:16.040Z,94.11
2022-09-14T10:39:17.831Z,94.24
2022-09-14T10:41:19.481Z,93.67
2022-09-14T10:43:21.148Z,93.15
2022-09-14T10:45:22.297Z,93.38
2022-09-14T10:47:23.574Z,93.06
2022-09-14T10:49:25.232Z,93.17
2022-09-14T10:51:26.343Z,93.69
2022-09-14T10:53:27.442Z,93.33
2022-09-14T10:55:28.778Z,92.64
2022-09-14T10:57:29.789Z,91.31
2022-09-14T10:59:30.634Z,90.71
2022-09-14T11:01:32.253Z,91.12
2022-09-14T11:03:33.707Z,90.55
2022-09-14T11:07:36.384Z,91.16
2022-09-14T11:09:38.075Z,90.96
2022-09-14T11:11:39.361Z,90.85
2022-09-14T11:13:41.765Z,90.13
2022-09-14T11:15:43.091Z,90.18
2022-09-14T11:17:44.164Z,89.87
2022-09-14T11:19:45.312Z,88.35
2022-09-14T11:21:47.051Z,88.74
2022-09-14T11:23:48.706Z,89.04
2022-09-14T11:25:49.931Z,89.26
2022-09-14T11:27:51.463Z,88.68
2022-09-14T11:29:53.151Z,88.44
2022-09-14T11:32:10.434Z,88.2
2022-09-14T11:33:56.392Z,87.96
2022-09-14T11:35:57.882Z,87.07
2022-09-14T11:38:00.269Z,85.29
2022-09-14T11:40:01.710Z,86.14
2022-09-14T11:42:02.619Z,84.73
2022-09-14T11:44:03.712Z,84.72
2022-09-14T11:46:05.398Z,84.97
2022-09-14T11:48:09.499Z,85.25
2022-09-14T11:50:07.616Z,82.59
2022-09-14T11:52:09.843Z,83.61
2022-09-14T11:54:10.705Z,82.6
2022-09-14T11:56:12.299Z,81.58
2022-09-14T11:58:13.611Z,81.32
2022-09-14T12:00:14.940Z,82.37
2022-09-14T12:02:15.777Z,81.17
2022-09-14T12:04:16.786Z,81.88
2022-09-14T12:06:18.123Z,81.61
2022-09-14T12:08:19.464Z,82.21
2022-09-14T12:10:20.317Z,83.2
2022-09-14T12:12:21.173Z,83.17
2022-09-14T12:14:22.485Z,83.87
2022-09-14T12:16:23.698Z,82.54
2022-09-14T12:18:25.275Z,82.07
2022-09-14T12:20:26.417Z,82.7
2022-09-14T12:24:29.148Z,80.93
2022-09-14T12:26:29.897Z,80.8
2022-09-14T12:30:34.892Z,82.56
2022-09-14T12:32:33.294Z,82.68
2022-09-14T12:34:34.454Z,83.07
2022-09-14T12:36:35.718Z,82.47
2022-09-14T12:40:38.532Z,83.21
2022-09-14T12:42:40.026Z,82.55
2022-09-14T12:44:41.702Z,83.02
2022-09-14T12:46:43.095Z,83.21
2022-09-14T12:49:27.533Z,83.12
2022-09-14T12:51:29.048Z,83.41
2022-09-14T12:53:30.801Z,83.19
2022-09-14T12:57:32.840Z,83.62
2022-09-14T12:59:33.852Z,84.29
2022-09-14T13:01:35.582Z,84.32
2022-09-14T13:03:36.733Z,84.35
2022-09-14T13:05:37.569Z,84.2
2022-09-14T13:07:38.744Z,84.4
2022-09-14T13:09:39.873Z,84.13
2022-09-14T13:11:41.120Z,84.69
2022-09-14T13:13:42.176Z,84.16
2022-09-14T13:15:43.653Z,83.92
2022-09-14T13:17:44.670Z,84.54
2022-09-14T13:19:46.291Z,84.53
2022-09-14T13:21:47.834Z,84.86
2022-09-14T13:23:49.442Z,84.96
2022-09-14T13:25:50.608Z,85.73
2022-09-14T13:27:51.641Z,85.84
2022-09-14T13:29:52.641Z,86.1
2022-09-14T13:31:53.771Z,86.46
2022-09-14T13:33:55.276Z,86.4
2022-09-14T13:35:56.679Z,86.34
2022-09-14T13:37:58.390Z,86.7
2022-09-14T13:39:59.476Z,87.04
2022-09-14T13:42:00.319Z,86.9
2022-09-14T13:44:01.903Z,87.05
2022-09-14T13:46:03.312Z,87.01
2022-09-14T13:48:04.377Z,87.08
2022-09-14T13:50:05.742Z,87.23
2022-09-14T13:52:06.817Z,87.57
2022-09-14T13:54:07.701Z,87.69
2022-09-14T13:56:08.894Z,87.72
2022-09-14T13:58:10.591Z,88.01
2022-09-14T14:00:11.511Z,88.2
2022-09-14T14:02:12.393Z,88.55
2022-09-14T14:04:16.086Z,89.1
2022-09-14T14:06:14.226Z,89.37
2022-09-14T14:08:15.932Z,90.19
2022-09-14T14:10:20.409Z,90.47
2022-09-14T14:12:18.336Z,90.92
2022-09-14T14:14:19.900Z,91.83
2022-09-14T14:16:21.040Z,92.49
2022-09-14T14:18:22.272Z,92.91
2022-09-14T14:20:23.830Z,93.18
2022-09-14T14:22:25.453Z,93.81
2022-09-14T14:26:27.705Z,93.64
2022-09-14T14:28:28.987Z,92.44
2022-09-14T14:30:30.191Z,92.1
2022-09-14T14:32:32.034Z,93.29
2022-09-14T14:34:33.533Z,93.56
2022-09-14T14:36:34.420Z,94.38
2022-09-14T14:38:36.161Z,94.71
2022-09-14T14:40:37.943Z,94.35
2022-09-14T14:42:38.900Z,94.11
2022-09-14T14:44:40.481Z,94.39
2022-09-14T14:46:42.291Z,94.72
2022-09-14T14:48:43.593Z,95.04
2022-09-14T14:50:44.722Z,95.28
2022-09-14T14:52:46.147Z,94.61
2022-09-14T14:54:47.032Z,94.08
2022-09-14T14:56:48.857Z,94.66
2022-09-14T14:58:50.160Z,93.55
2022-09-14T15:00:51.496Z,93.64
2022-09-14T15:02:52.590Z,93.41
2022-09-14T15:04:54.204Z,94.25
2022-09-14T15:08:56.372Z,94.27
2022-09-14T15:10:58.089Z,94.73
2022-09-14T15:12:59.393Z,94.05
2022-09-14T15:15:00.337Z,94.3
2022-09-14T15:17:01.444Z,94.76
2022-09-14T15:19:02.799Z,95.03
2022-09-14T15:21:03.878Z,94.55
2022-09-14T15:23:04.883Z,94.7
2022-09-14T15:25:06.387Z,94.37
2022-09-14T15:27:08.020Z,94.68
2022-09-14T15:29:09.437Z,94.95
2022-09-14T15:31:11.073Z,94.9
2022-09-14T15:33:15.883Z,94.67
2022-09-14T15:35:14.290Z,94.52
2022-09-14T15:37:15.133Z,94.5
2022-09-14T15:41:17.508Z,94.73
2022-09-14T15:43:19.140Z,94.42
2022-09-14T15:45:20.859Z,94.27
2022-09-14T15:47:22.130Z,94.54
2022-09-14T15:51:24.203Z,94.18
2022-09-14T15:53:25.859Z,94.05
2022-09-14T15:55:27.320Z,94.28
2022-09-14T15:57:29.105Z,94.41
2022-09-14T15:59:30.459Z,94.42
2022-09-14T16:01:32.065Z,94.5
2022-09-14T16:03:33.548Z,94.39
2022-09-14T16:05:34.544Z,94.2
2022-09-14T16:07:36.064Z,94.18
2022-09-14T16:09:37.632Z,94.16
2022-09-14T16:11:38.595Z,93.91
2022-09-14T16:13:40.097Z,94.13
2022-09-14T16:15:41.486Z,94.27
2022-09-14T16:17:42.683Z,94.1
2022-09-14T16:19:43.610Z,93.64
2022-09-14T16:21:44.574Z,94.08
2022-09-14T16:23:45.574Z,93.64
2022-09-14T16:25:47.200Z,93.91
2022-09-14T16:27:48.725Z,94.19
2022-09-14T16:29:49.769Z,94.22
2022-09-14T16:31:51.358Z,94.17
2022-09-14T16:33:52.812Z,94.16
2022-09-14T16:35:53.953Z,94.04
2022-09-14T16:37:55.568Z,93.87
2022-09-14T16:39:56.668Z,94
2022-09-14T16:41:57.844Z,94.05
2022-09-14T16:43:59.534Z,94.11
2022-09-14T16:46:00.785Z,94.24
2022-09-14T16:50:03.931Z,94.12
2022-09-14T16:52:05.351Z,94.39
2022-09-14T16:54:07.058Z,94.58
2022-09-14T16:56:08.360Z,94.5
2022-09-14T16:58:09.342Z,94.4
2022-09-14T17:00:11.174Z,94.2
2022-09-14T17:02:12.648Z,94.05
2022-09-14T17:04:14.170Z,94.22
2022-09-14T17:06:15.027Z,93.91
2022-09-14T17:08:16.578Z,93.95
2022-09-14T17:10:17.595Z,93.77
2022-09-14T17:12:18.449Z,93.47
2022-09-14T17:14:19.623Z,93.62
2022-09-14T17:16:20.647Z,93.48
2022-09-14T17:18:22.008Z,93.37
2022-09-14T17:20:23.519Z,93.38
2022-09-14T17:22:24.609Z,93.33
2022-09-14T17:24:26.447Z,92.75
2022-09-14T17:26:27.368Z,92.95
2022-09-14T17:28:29.212Z,93.1
2022-09-14T17:32:32.045Z,93.02
2022-09-14T17:34:33.195Z,93.54
2022-09-14T17:36:34.584Z,93.76
2022-09-14T17:38:36.334Z,94.25
2022-09-14T17:40:37.285Z,94.32
2022-09-14T17:42:38.364Z,94.06
2022-09-14T17:44:39.257Z,94.05
2022-09-14T17:46:48.549Z,94.19
2022-09-14T17:48:42.221Z,93.8
2022-09-14T17:50:43.593Z,93.85
2022-09-14T17:52:45.360Z,94.18
2022-09-14T17:54:46.310Z,94.45
2022-09-14T17:56:47.156Z,94.73
2022-09-14T17:58:48.894Z,94.72
2022-09-14T18:00:50.248Z,94.65
2022-09-14T18:02:51.899Z,94.39
2022-09-14T18:04:53.540Z,93.97
2022-09-14T18:06:54.515Z,93.48
2022-09-14T18:08:55.951Z,93.27
2022-09-14T18:10:57.711Z,93.29
2022-09-14T18:12:59.540Z,93.24
2022-09-14T18:15:01.195Z,93.52
2022-09-14T18:17:03.052Z,93.36
2022-09-14T18:21:05.888Z,93.08
2022-09-14T18:23:07.397Z,92.96
2022-09-14T18:25:09.159Z,92.9
2022-09-14T18:27:10.340Z,92.83
2022-09-14T18:31:13.980Z,92.93
2022-09-14T18:33:15.634Z,93.16
2022-09-14T18:35:16.739Z,93.35
2022-09-14T18:37:18.376Z,93.32
2022-09-14T18:39:20.147Z,93.2
2022-09-14T18:41:21.042Z,92.96
2022-09-14T18:43:22.741Z,92.64
2022-09-14T18:45:23.954Z,92.9
2022-09-14T18:47:25.659Z,93.02
2022-09-14T18:49:26.940Z,92.84
2022-09-14T18:51:27.964Z,93.1
2022-09-14T18:53:29.336Z,93.37
2022-09-14T18:55:30.437Z,93.68
2022-09-14T18:57:31.658Z,94
2022-09-14T18:59:32.569Z,94.15
2022-09-14T19:01:34.510Z,93.96
2022-09-14T19:03:36.030Z,94.23
2022-09-14T19:05:37.151Z,94.39
2022-09-14T19:07:38.919Z,94.39
2022-09-14T19:09:40.493Z,94.54
2022-09-14T19:13:43.398Z,94.37
2022-09-14T19:15:45.249Z,94.26
2022-09-14T19:17:46.293Z,93.93
2022-09-14T19:19:47.555Z,93.91
2022-09-14T19:21:48.869Z,93.56
2022-09-14T19:23:50.892Z,93.73
2022-09-14T19:25:52.347Z,93.82
2022-09-14T19:27:53.324Z,93.82
2022-09-14T19:29:54.253Z,94.01
2022-09-14T19:31:55.725Z,94.08
2022-09-14T19:32:39.463Z,94.05
2022-09-14T19:34:41.068Z,94.04
2022-09-14T19:36:42.739Z,94.09
2022-09-14T19:38:44.605Z,94.27
2022-09-14T19:40:46.262Z,94.49
2022-09-14T19:42:48.108Z,94.62
2022-09-14T19:44:49.437Z,94.52
2022-09-14T19:46:51.034Z,94.36
2022-09-14T19:50:53.310Z,94.37
2022-09-14T19:52:54.803Z,94.58
2022-09-14T19:54:55.714Z,94.61
2022-09-14T19:57:01.996Z,94.74
2022-09-14T19:58:58.046Z,94.74
2022-09-14T20:00:59.838Z,94.68
2022-09-14T20:03:01.100Z,94.58
2022-09-14T20:05:02.007Z,94.7
2022-09-14T20:07:02.969Z,94.75
2022-09-14T20:09:04.512Z,94.72
2022-09-14T20:11:05.922Z,94.86
2022-09-14T20:13:07.427Z,94.75
2022-09-14T20:15:08.914Z,94.96
2022-09-14T20:17:19.564Z,95.12
2022-09-14T20:19:20.700Z,95.17
2022-09-14T20:23:13.878Z,95.2
2022-09-14T20:25:15.575Z,95.12
2022-09-14T20:27:16.813Z,94.99
2022-09-14T20:29:18.004Z,94.49
2022-09-14T20:31:19.446Z,94.23
2022-09-14T20:33:20.433Z,94.19
2022-09-14T20:35:21.682Z,94.2
2022-09-14T20:39:24.315Z,94.25
2022-09-14T20:41:25.357Z,94.19
2022-09-14T20:43:26.286Z,94.28
2022-09-14T20:45:28.098Z,93.97
2022-09-14T20:49:30.681Z,94
2022-09-14T20:51:31.831Z,94.08
2022-09-14T20:53:32.752Z,94.36
2022-09-14T20:55:34.130Z,94.56
2022-09-14T20:57:35.684Z,94.7
2022-09-14T20:59:36.868Z,94.76
2022-09-14T21:01:38.620Z,94.7
2022-09-14T21:03:40.355Z,94.69
2022-09-14T21:05:41.326Z,94.65
2022-09-14T21:07:42.821Z,94.58
2022-09-14T21:09:44.263Z,94.54
2022-09-14T21:11:45.270Z,94.72
2022-09-14T21:13:46.872Z,94.8
2022-09-14T21:15:48.213Z,94.95
2022-09-14T21:17:49.866Z,95
2022-09-14T21:19:51.037Z,95.03
2022-09-14T21:21:52.439Z,95.21
2022-09-14T21:23:54.237Z,95.23
2022-09-14T21:25:55.779Z,95.27
2022-09-14T21:28:00.355Z,95.38
2022-09-14T21:32:00.509Z,94.99
2022-09-14T21:34:01.870Z,95.1
2022-09-14T21:36:02.844Z,95.15
2022-09-14T21:38:04.506Z,95.27
2022-09-14T21:40:05.797Z,95.31
2022-09-14T21:42:07.212Z,95.39
2022-09-14T21:44:08.188Z,95.54
2022-09-14T21:46:09.651Z,95.64
2022-09-14T21:48:11.417Z,95.69
2022-09-14T21:50:12.383Z,95.78
2022-09-14T21:52:13.856Z,95.88
2022-09-14T21:54:15.206Z,96
2022-09-14T21:56:16.282Z,96.13
2022-09-14T21:58:17.277Z,96.22
2022-09-14T22:00:30.180Z,96.36
2022-09-14T22:04:21.673Z,96.48
2022-09-14T22:06:22.627Z,96.53
2022-09-14T22:08:24.156Z,96.45
2022-09-14T22:10:25.465Z,96.27
2022-09-14T22:14:27.553Z,96.24
2022-09-14T22:16:29.349Z,96.3
2022-09-14T22:18:30.370Z,96.34
2022-09-14T22:20:32.044Z,96.36
2022-09-14T22:22:33.470Z,96.35
2022-09-14T22:24:37.711Z,96.18
2022-09-14T22:26:35.491Z,96.19
2022-09-14T22:28:37.079Z,96.22
2022-09-14T22:30:38.818Z,96.31
2022-09-14T22:32:39.856Z,96.32
2022-09-14T22:34:41.210Z,96.28
2022-09-14T22:36:42.737Z,96.29
2022-09-14T22:38:44.302Z,96.24
2022-09-14T22:40:45.320Z,96.09
2022-09-14T22:42:46.933Z,96.07
2022-09-14T22:44:47.955Z,96.06
2022-09-14T22:46:49.395Z,96.07
2022-09-14T22:48:51.222Z,96.12
2022-09-14T22:50:52.229Z,96.01
2022-09-14T22:52:53.154Z,96
2022-09-14T22:54:54.049Z,95.96
2022-09-14T22:56:55.493Z,95.93
2022-09-14T22:58:56.549Z,95.85
2022-09-14T23:02:59.704Z,95.89
2022-09-14T23:05:00.971Z,95.86
2022-09-14T23:07:02.009Z,95.95
2022-09-14T23:09:03.726Z,95.96
2022-09-14T23:13:06.029Z,96.17
2022-09-14T23:15:06.981Z,96.21
2022-09-14T23:17:08.810Z,96.23
2022-09-14T23:19:10.394Z,96.27
2022-09-14T23:21:11.602Z,96.28
2022-09-14T23:23:12.814Z,96.28
2022-09-14T23:25:14.534Z,96.31
2022-09-14T23:27:15.837Z,96.19
2022-09-14T23:29:17.237Z,96.03
2022-09-14T23:31:18.414Z,95.94
2022-09-14T23:33:20.212Z,95.87
2022-09-14T23:35:21.425Z,95.68
2022-09-14T23:37:22.759Z,95.53
2022-09-14T23:39:24.277Z,95.45
2022-09-14T23:41:25.468Z,95.27
2022-09-14T23:43:26.662Z,95.16
2022-09-14T23:45:28.433Z,95.18
2022-09-14T23:47:29.359Z,95.33
2022-09-14T23:49:30.609Z,95.34
2022-09-14T23:51:32.265Z,95.55
2022-09-14T23:55:34.861Z,95.8
2022-09-14T23:57:36.627Z,96.02
2022-09-14T23:59:38.076Z,96.15
